createdAt,value
2022-11-22T00:00:20.778Z,17.10
2022-11-22T00:02:49.658Z,20.17
2022-11-22T00:05:17.304Z,17.13
2022-11-22T00:07:44.879Z,19.80
2022-11-22T00:10:13.662Z,17.45
2022-11-22T00:12:41.570Z,19.23
2022-11-22T00:15:09.729Z,20.38
2022-11-22T00:17:37.374Z,19.30
2022-11-22T00:20:07.685Z,18.63
2022-11-22T00:22:39.712Z,18.90
2022-11-22T00:25:10.810Z,22.30
2022-11-22T00:27:38.322Z,20.45
2022-11-22T00:30:06.417Z,19.10
2022-11-22T00:32:33.867Z,16.40
2022-11-22T00:35:01.432Z,19.50
2022-11-22T00:37:30.873Z,18.83
2022-11-22T00:39:58.508Z,17.45
2022-11-22T00:42:26.720Z,16.75
2022-11-22T00:44:54.200Z,23.17
2022-11-22T00:47:21.638Z,19.00
2022-11-22T00:49:49.109Z,19.95
2022-11-22T00:52:16.587Z,21.50
2022-11-22T00:54:48.853Z,20.92
2022-11-22T00:57:20.705Z,23.38
2022-11-22T00:59:48.163Z,19.27
2022-11-22T01:02:15.644Z,21.42
2022-11-22T01:04:43.143Z,20.27
2022-11-22T01:07:10.854Z,17.98
2022-11-22T01:09:38.417Z,21.38
2022-11-22T01:12:07.441Z,18.95
2022-11-22T01:14:34.923Z,21.13
2022-11-22T01:17:02.516Z,20.73
2022-11-22T01:19:30.377Z,21.85
2022-11-22T01:21:58.014Z,23.42
2022-11-22T01:24:25.656Z,20.45
2022-11-22T01:26:53.120Z,21.15
2022-11-22T01:29:22.013Z,22.02
2022-11-22T01:31:49.495Z,22.83
2022-11-22T01:34:16.978Z,20.75
2022-11-22T01:36:44.465Z,22.38
2022-11-22T01:39:11.928Z,20.52
2022-11-22T01:41:39.554Z,17.23
2022-11-22T01:44:20.137Z,20.17
2022-11-22T01:46:50.246Z,20.88
2022-11-22T01:49:22.934Z,21.42
2022-11-22T01:51:53.510Z,24.95
2022-11-22T01:54:23.262Z,18.95
2022-11-22T01:56:53.626Z,20.15
2022-11-22T01:59:22.615Z,22.00
2022-11-22T02:01:51.854Z,24.80
2022-11-22T02:04:20.561Z,19.23
2022-11-22T02:06:50.424Z,23.80
2022-11-22T02:09:18.016Z,19.20
2022-11-22T02:11:48.250Z,22.73
2022-11-22T02:14:17.197Z,23.70
2022-11-22T02:16:44.681Z,21.73
2022-11-22T02:19:15.810Z,22.90
2022-11-22T02:21:44.188Z,19.75
2022-11-22T02:24:16.123Z,20.00
2022-11-22T02:26:44.985Z,24.08
2022-11-22T02:29:12.862Z,23.33
2022-11-22T02:31:42.304Z,22.42
2022-11-22T02:34:09.962Z,19.30
2022-11-22T02:36:40.467Z,22.48
2022-11-22T02:39:09.264Z,21.08
2022-11-22T02:41:37.373Z,22.60
2022-11-22T02:44:07.838Z,22.20
2022-11-22T02:46:35.281Z,23.30
2022-11-22T02:49:02.763Z,22.88
2022-11-22T02:51:30.286Z,20.70
2022-11-22T02:53:57.871Z,21.55
2022-11-22T02:56:25.328Z,22.98
2022-11-22T02:58:52.848Z,21.95
2022-11-22T03:01:21.760Z,22.50
2022-11-22T03:03:49.312Z,20.88
2022-11-22T03:06:16.818Z,20.02
2022-11-22T03:08:44.260Z,22.58
2022-11-22T03:11:11.740Z,23.38
2022-11-22T03:13:39.202Z,24.17
2022-11-22T03:16:06.722Z,27.42
2022-11-22T03:18:35.969Z,19.58
2022-11-22T03:21:03.567Z,27.48
2022-11-22T03:23:31.297Z,23.15
2022-11-22T03:25:58.777Z,24.25
2022-11-22T03:28:26.895Z,24.85
2022-11-22T03:30:54.401Z,22.23
2022-11-22T03:33:21.877Z,22.92
2022-11-22T03:35:50.733Z,25.73
2022-11-22T03:38:18.189Z,23.92
2022-11-22T03:40:47.234Z,21.70
2022-11-22T03:43:14.754Z,23.88
2022-11-22T03:45:45.549Z,24.85
2022-11-22T03:48:13.026Z,23.40
2022-11-22T03:50:40.649Z,21.77
2022-11-22T03:53:09.594Z,22.83
2022-11-22T03:55:37.114Z,23.08
2022-11-22T03:58:04.760Z,23.88
2022-11-22T04:00:32.590Z,27.63
2022-11-22T04:03:00.155Z,24.73
2022-11-22T04:05:27.751Z,26.52
2022-11-22T04:07:58.088Z,26.88
2022-11-22T04:10:27.066Z,27.33
2022-11-22T04:12:57.425Z,27.10
2022-11-22T04:15:23.889Z,30.02
2022-11-22T04:17:51.431Z,23.40
2022-11-22T04:20:37.439Z,27.27
2022-11-22T04:23:05.904Z,31.42
2022-11-22T04:25:34.626Z,32.38
2022-11-22T04:28:02.218Z,26.02
2022-11-22T04:30:43.948Z,28.20
2022-11-22T04:33:11.878Z,32.22
2022-11-22T04:35:40.118Z,29.60
2022-11-22T04:38:07.765Z,33.42
2022-11-22T04:40:36.694Z,32.30
2022-11-22T04:43:21.797Z,34.45
2022-11-22T04:45:49.422Z,31.30
2022-11-22T04:48:17.102Z,32.53
2022-11-22T04:51:02.454Z,32.20
2022-11-22T04:53:30.359Z,32.47
2022-11-22T04:55:59.197Z,33.72
2022-11-22T04:58:26.751Z,34.60
2022-11-22T05:00:54.263Z,33.97
2022-11-22T05:03:22.008Z,32.53
2022-11-22T05:05:49.457Z,33.10
2022-11-22T05:08:16.933Z,32.03
2022-11-22T05:10:59.508Z,36.47
2022-11-22T05:13:29.862Z,33.78
2022-11-22T05:15:57.416Z,31.88
2022-11-22T05:18:25.066Z,33.53
2022-11-22T05:20:52.885Z,34.40
2022-11-22T05:23:38.411Z,39.03
2022-11-22T05:26:06.581Z,33.72
2022-11-22T05:28:36.259Z,31.38
2022-11-22T05:31:07.308Z,33.15
2022-11-22T05:33:36.327Z,29.65
2022-11-22T05:36:04.054Z,33.28
2022-11-22T05:38:31.528Z,37.25
2022-11-22T05:40:59.029Z,30.80
2022-11-22T05:43:26.541Z,36.88
2022-11-22T05:45:55.462Z,34.35
2022-11-22T05:48:22.920Z,37.08
2022-11-22T05:50:50.399Z,36.35
2022-11-22T05:53:17.854Z,32.95
2022-11-22T05:55:45.348Z,32.22
2022-11-22T05:58:12.818Z,39.88
2022-11-22T06:00:40.384Z,36.78
2022-11-22T06:03:09.222Z,36.60
2022-11-22T06:05:36.680Z,34.85
2022-11-22T06:08:04.363Z,36.47
2022-11-22T06:10:34.256Z,33.90
2022-11-22T06:13:01.702Z,32.97
2022-11-22T06:15:29.224Z,36.40
2022-11-22T06:17:56.721Z,38.25
2022-11-22T06:20:25.557Z,35.95
2022-11-22T06:22:53.130Z,37.33
2022-11-22T06:25:20.702Z,35.90
2022-11-22T06:27:48.142Z,36.75
2022-11-22T06:30:16.169Z,30.33
2022-11-22T06:32:43.679Z,31.13
2022-11-22T06:35:11.244Z,32.72
2022-11-22T06:37:40.155Z,35.15
2022-11-22T06:40:11.612Z,34.65
2022-11-22T06:42:39.072Z,34.08
2022-11-22T06:45:07.016Z,40.70
2022-11-22T06:47:34.437Z,33.72
2022-11-22T06:50:01.905Z,41.00
2022-11-22T06:52:29.421Z,38.72
2022-11-22T06:54:58.275Z,34.42
2022-11-22T06:57:25.728Z,31.63
2022-11-22T06:59:53.175Z,32.55
2022-11-22T07:02:21.012Z,36.72
2022-11-22T07:05:17.193Z,30.35
2022-11-22T07:07:36.293Z,31.67
2022-11-22T07:10:05.545Z,33.25
2022-11-22T07:12:33.089Z,33.85
2022-11-22T07:15:00.513Z,25.95
2022-11-22T07:17:27.990Z,28.67
2022-11-22T07:19:55.478Z,33.45
2022-11-22T07:22:23.021Z,35.58
2022-11-22T07:24:50.506Z,31.30
2022-11-22T07:27:19.330Z,33.50
2022-11-22T07:29:46.853Z,27.73
2022-11-22T07:32:14.370Z,33.45
2022-11-22T07:34:41.865Z,31.58
2022-11-22T07:37:09.693Z,33.28
2022-11-22T07:39:37.149Z,31.88
2022-11-22T07:42:04.690Z,30.65
2022-11-22T07:44:33.583Z,34.10
2022-11-22T07:47:01.059Z,27.77
2022-11-22T07:49:28.887Z,32.10
2022-11-22T07:51:56.600Z,30.17
2022-11-22T07:54:24.139Z,33.05
2022-11-22T07:56:51.610Z,31.23
2022-11-22T07:59:19.146Z,32.35
2022-11-22T08:01:48.013Z,29.33
2022-11-22T08:04:15.857Z,28.58
2022-11-22T08:06:43.415Z,29.38
2022-11-22T08:09:11.911Z,31.60
2022-11-22T08:11:39.432Z,29.52
2022-11-22T08:14:06.920Z,31.73
2022-11-22T08:16:34.537Z,26.02
2022-11-22T08:19:03.610Z,28.95
2022-11-22T08:21:31.080Z,29.73
2022-11-22T08:23:59.311Z,31.30
2022-11-22T08:26:27.190Z,33.88
2022-11-22T08:28:54.785Z,30.92
2022-11-22T08:31:22.302Z,29.05
2022-11-22T08:33:49.805Z,32.50
2022-11-22T08:36:18.583Z,33.05
2022-11-22T08:38:46.114Z,32.90
2022-11-22T08:41:13.581Z,31.80
2022-11-22T08:43:41.075Z,28.90
2022-11-22T08:46:08.886Z,32.78
2022-11-22T08:48:37.602Z,28.95
2022-11-22T08:51:06.013Z,31.08
2022-11-22T08:53:35.510Z,34.33
2022-11-22T08:56:03.608Z,34.30
2022-11-22T08:58:31.367Z,36.20
2022-11-22T09:01:04.133Z,33.13
2022-11-22T09:03:31.638Z,31.45
2022-11-22T09:09:02.739Z,29.90
2022-11-22T09:11:37.862Z,30.48
2022-11-22T09:14:05.382Z,35.45
2022-11-22T09:16:32.905Z,34.13
2022-11-22T09:19:00.558Z,33.33
2022-11-22T09:21:28.127Z,32.97
2022-11-22T09:23:57.004Z,29.20
2022-11-22T09:26:25.361Z,30.90
2022-11-22T09:28:53.488Z,35.28
2022-11-22T09:31:21.726Z,31.55
2022-11-22T09:33:49.858Z,33.63
2022-11-22T09:36:18.313Z,28.50
2022-11-22T09:38:45.830Z,29.25
2022-11-22T09:41:24.142Z,30.73
2022-11-22T09:43:57.494Z,30.67
2022-11-22T09:46:29.830Z,32.83
2022-11-22T09:49:04.586Z,33.42
2022-11-22T09:51:35.908Z,30.45
2022-11-22T09:54:06.168Z,31.45
2022-11-22T09:56:35.149Z,31.05
2022-11-22T09:59:05.644Z,28.13
2022-11-22T10:01:38.933Z,30.13
2022-11-22T10:04:07.410Z,29.90
2022-11-22T10:06:35.707Z,28.33
2022-11-22T10:09:07.733Z,31.25
2022-11-22T10:11:39.310Z,29.75
2022-11-22T10:16:37.132Z,28.63
2022-11-22T10:19:11.166Z,32.78
2022-11-22T10:21:38.701Z,31.02
2022-11-22T10:24:06.740Z,28.77
2022-11-22T10:26:35.024Z,30.40
2022-11-22T10:29:10.010Z,29.63
2022-11-22T10:31:39.202Z,31.48
2022-11-22T10:34:12.502Z,31.40
2022-11-22T10:36:45.189Z,33.20
2022-11-22T10:39:22.133Z,36.75
2022-11-22T10:41:55.798Z,32.55
2022-11-22T10:44:32.029Z,33.00
2022-11-22T10:47:03.022Z,24.55
2022-11-22T10:49:37.149Z,28.00
2022-11-22T10:52:10.312Z,30.55
2022-11-22T10:54:43.225Z,31.17
2022-11-22T10:57:15.730Z,26.83
2022-11-22T10:59:53.905Z,26.75
2022-11-22T11:02:37.761Z,27.35
2022-11-22T11:05:06.573Z,32.67
2022-11-22T11:07:35.147Z,29.55
2022-11-22T11:10:17.442Z,28.95
2022-11-22T11:12:49.556Z,26.90
2022-11-22T11:15:21.289Z,28.73
2022-11-22T11:17:51.866Z,27.25
2022-11-22T11:20:22.174Z,28.92
2022-11-22T11:23:13.728Z,23.65
2022-11-22T11:25:40.251Z,27.08
2022-11-22T11:28:09.232Z,27.85
2022-11-22T11:30:42.770Z,28.00
2022-11-22T11:33:18.744Z,32.97
2022-11-22T11:35:47.063Z,25.38
2022-11-22T11:38:27.353Z,30.00
2022-11-22T11:40:54.854Z,27.80
2022-11-22T11:43:23.043Z,26.33
2022-11-22T11:45:52.590Z,26.00
2022-11-22T11:48:29.995Z,24.88
2022-11-22T11:51:07.394Z,29.58
2022-11-22T11:53:35.275Z,28.58
2022-11-22T11:56:35.806Z,26.75
2022-11-22T11:59:08.577Z,27.10
2022-11-22T12:01:39.089Z,24.95
2022-11-22T12:04:07.627Z,28.42
2022-11-22T12:06:35.130Z,26.95
2022-11-22T12:09:08.912Z,28.48
2022-11-22T12:11:41.508Z,27.75
2022-11-22T12:14:20.028Z,24.92
2022-11-22T12:16:50.477Z,30.92
2022-11-22T12:19:24.851Z,24.08
2022-11-22T12:21:57.159Z,24.10
2022-11-22T12:24:45.587Z,25.15
2022-11-22T12:27:14.303Z,25.65
2022-11-22T12:29:43.606Z,32.00
2022-11-22T12:32:15.631Z,30.13
2022-11-22T12:34:48.069Z,28.17
2022-11-22T12:37:18.367Z,31.42
2022-11-22T12:39:47.790Z,26.35
2022-11-22T12:42:21.570Z,29.55
2022-11-22T12:44:54.058Z,29.15
2022-11-22T12:47:25.587Z,33.13
2022-11-22T12:49:54.374Z,27.15
2022-11-22T12:52:24.535Z,35.80
2022-11-22T12:55:01.413Z,29.30
2022-11-22T12:57:35.544Z,28.30
2022-11-22T13:00:07.623Z,27.15
2022-11-22T13:02:39.733Z,30.48
2022-11-22T13:05:11.082Z,30.73
2022-11-22T13:10:09.052Z,29.13
2022-11-22T13:12:38.672Z,34.85
2022-11-22T13:15:06.681Z,27.92
2022-11-22T13:17:34.971Z,31.88
2022-11-22T13:20:06.692Z,27.77
2022-11-22T13:22:37.105Z,30.70
2022-11-22T13:25:12.212Z,31.48
2022-11-22T13:27:41.946Z,32.25
2022-11-22T13:30:17.785Z,28.92
2022-11-22T13:32:48.244Z,30.13
2022-11-22T13:35:22.195Z,27.30
2022-11-22T13:37:50.922Z,33.08
2022-11-22T13:40:24.496Z,28.50
2022-11-22T13:43:12.551Z,33.30
2022-11-22T13:45:47.221Z,32.50
2022-11-22T13:48:15.050Z,33.58
2022-11-22T13:50:57.684Z,27.60
2022-11-22T13:53:29.212Z,27.08
2022-11-22T13:55:57.681Z,29.95
2022-11-22T13:58:50.421Z,28.73
2022-11-22T14:01:32.534Z,25.95
2022-11-22T14:04:14.921Z,27.98
2022-11-22T14:06:47.737Z,32.78
2022-11-22T14:09:18.228Z,29.95
2022-11-22T14:11:52.032Z,29.85
2022-11-22T14:14:22.278Z,28.02
2022-11-22T14:16:52.830Z,30.98
2022-11-22T14:19:27.824Z,28.73
2022-11-22T14:22:03.640Z,27.80
2022-11-22T14:24:39.264Z,33.75
2022-11-22T14:27:11.770Z,26.80
2022-11-22T14:29:53.933Z,33.72
2022-11-22T14:32:22.489Z,30.55
2022-11-22T14:35:08.781Z,30.33
2022-11-22T14:37:45.049Z,31.88
2022-11-22T14:40:27.800Z,25.17
2022-11-22T14:42:57.103Z,30.77
2022-11-22T14:45:27.987Z,30.77
2022-11-22T14:48:06.343Z,30.23
2022-11-22T14:50:34.662Z,29.35
2022-11-22T14:53:08.217Z,29.17
2022-11-22T14:55:37.287Z,31.30
2022-11-22T14:58:07.190Z,30.27
2022-11-22T15:00:43.514Z,36.85
2022-11-22T15:03:32.631Z,31.20
2022-11-22T15:09:12.527Z,30.25
2022-11-22T15:09:14.915Z,35.58
2022-11-22T15:11:59.486Z,30.02
2022-11-22T15:14:39.552Z,33.40
2022-11-22T15:59:40.286Z,37.72
2022-11-22T16:02:14.848Z,34.45
2022-11-22T16:04:47.897Z,34.17
2022-11-22T16:07:23.094Z,35.92
2022-11-22T16:09:51.022Z,34.83
2022-11-22T16:12:27.921Z,37.63
2022-11-22T16:14:56.088Z,35.10
2022-11-22T16:17:29.273Z,36.53
2022-11-22T16:20:15.682Z,38.58
2022-11-22T16:22:43.202Z,34.30
2022-11-22T16:25:23.139Z,34.90
2022-11-22T16:27:50.861Z,38.92
2022-11-22T16:30:23.504Z,36.42
2022-11-22T16:32:56.403Z,37.05
2022-11-22T16:35:31.056Z,38.70
2022-11-22T16:37:58.591Z,41.85
2022-11-22T16:40:26.227Z,39.38
2022-11-22T16:42:53.748Z,42.38
2022-11-22T16:45:21.974Z,41.17
2022-11-22T16:47:58.630Z,38.38
2022-11-22T16:50:39.770Z,39.30
2022-11-22T16:53:10.025Z,42.60
2022-11-22T16:55:37.537Z,45.47
2022-11-22T16:58:12.108Z,40.15
2022-11-22T17:00:39.625Z,35.30
2022-11-22T17:03:07.197Z,38.00
2022-11-22T17:05:34.689Z,37.75
2022-11-22T17:08:03.506Z,40.25
2022-11-22T17:10:31.798Z,40.30
2022-11-22T17:12:59.277Z,37.45
2022-11-22T17:15:27.158Z,39.80
2022-11-22T17:17:54.631Z,39.38
2022-11-22T17:20:22.203Z,39.35
2022-11-22T17:22:49.665Z,42.97
2022-11-22T17:25:18.554Z,35.33
2022-11-22T17:27:50.207Z,43.53
2022-11-22T17:30:20.492Z,33.40
2022-11-22T17:32:47.998Z,42.35
2022-11-22T17:35:15.549Z,39.10
2022-11-22T17:37:43.017Z,34.38
2022-11-22T17:40:11.192Z,38.75
2022-11-22T17:42:41.389Z,43.40
2022-11-22T17:45:09.166Z,46.28
2022-11-22T17:47:36.713Z,35.88
2022-11-22T17:50:04.325Z,38.15
2022-11-22T17:52:32.105Z,41.55
2022-11-22T17:55:05.545Z,37.92
2022-11-22T17:57:33.845Z,40.03
2022-11-22T18:00:02.799Z,39.88
2022-11-22T18:02:30.424Z,37.70
2022-11-22T18:04:57.981Z,38.88
2022-11-22T18:07:28.457Z,35.60
2022-11-22T18:09:56.142Z,36.78
2022-11-22T18:12:23.622Z,38.72
2022-11-22T18:14:51.097Z,42.42
2022-11-22T18:17:19.938Z,37.80
2022-11-22T18:19:47.446Z,41.92
2022-11-22T18:22:14.901Z,39.45
2022-11-22T18:24:42.386Z,36.85
2022-11-22T18:27:09.965Z,40.58
2022-11-22T18:29:44.584Z,36.65
2022-11-22T18:32:12.120Z,36.95
2022-11-22T18:34:41.634Z,40.53
2022-11-22T18:37:09.324Z,34.92
2022-11-22T18:39:39.041Z,37.78
2022-11-22T18:42:07.443Z,36.42
2022-11-22T18:44:35.075Z,36.55
2022-11-22T18:47:02.689Z,36.22
2022-11-22T18:49:30.741Z,35.85
2022-11-22T18:51:59.969Z,38.22
2022-11-22T18:54:27.493Z,38.15
2022-11-22T18:56:55.050Z,40.47
2022-11-22T18:59:22.585Z,35.92
2022-11-22T19:01:50.162Z,40.67
2022-11-22T19:04:17.785Z,38.22
2022-11-22T19:06:45.857Z,39.35
2022-11-22T19:09:14.810Z,37.60
2022-11-22T19:11:42.299Z,37.92
2022-11-22T19:14:09.768Z,37.70
2022-11-22T19:16:37.310Z,39.45
2022-11-22T19:19:04.895Z,38.83
2022-11-22T19:21:32.432Z,36.88
2022-11-22T19:23:59.915Z,34.85
2022-11-22T19:26:29.016Z,40.78
2022-11-22T19:28:57.562Z,36.22
2022-11-22T19:31:26.417Z,38.13
2022-11-22T19:33:54.093Z,41.60
2022-11-22T19:36:25.316Z,43.78
2022-11-22T19:38:58.210Z,35.28
2022-11-22T19:41:26.237Z,42.40
2022-11-22T19:43:56.623Z,41.70
2022-11-22T19:46:24.444Z,39.97
2022-11-22T19:48:52.338Z,40.45
2022-11-22T19:51:19.842Z,45.00
2022-11-22T19:53:47.389Z,39.45
2022-11-22T19:56:15.882Z,41.55
2022-11-22T19:58:44.129Z,37.50
2022-11-22T20:01:14.156Z,38.78
2022-11-22T20:03:42.204Z,37.15
2022-11-22T20:06:10.474Z,35.50
2022-11-22T20:08:38.348Z,38.92
2022-11-22T20:11:06.903Z,38.65
2022-11-22T20:13:35.885Z,40.42
2022-11-22T20:16:08.391Z,34.50
2022-11-22T20:18:37.261Z,38.45
2022-11-22T20:21:05.477Z,37.75
2022-11-22T20:23:33.547Z,38.47
2022-11-22T20:26:04.707Z,37.83
2022-11-22T20:28:32.328Z,37.78
2022-11-22T20:31:07.237Z,36.40
2022-11-22T20:33:35.161Z,36.55
2022-11-22T20:36:04.604Z,39.70
2022-11-22T20:38:35.220Z,35.42
2022-11-22T20:41:02.746Z,35.05
2022-11-22T20:43:31.471Z,34.38
2022-11-22T20:46:02.658Z,38.13
2022-11-22T20:48:30.413Z,39.35
2022-11-22T20:50:57.942Z,35.72
2022-11-22T20:53:26.747Z,40.80
2022-11-22T20:55:54.458Z,35.95
2022-11-22T20:58:22.290Z,37.80
2022-11-22T21:00:49.762Z,40.75
2022-11-22T21:03:17.308Z,34.38
2022-11-22T21:05:45.857Z,41.40
2022-11-22T21:08:13.409Z,38.05
2022-11-22T21:10:42.186Z,39.33
2022-11-22T21:13:09.660Z,34.95
2022-11-22T21:15:37.172Z,34.05
2022-11-22T21:18:24.098Z,40.45
2022-11-22T21:20:52.444Z,39.97
2022-11-22T21:23:20.013Z,40.95
2022-11-22T21:25:50.420Z,35.65
2022-11-22T21:28:18.154Z,40.63
2022-11-22T21:30:45.632Z,35.03
2022-11-22T21:33:13.068Z,42.25
2022-11-22T21:35:44.950Z,42.60
2022-11-22T21:38:13.450Z,44.00
2022-11-22T21:40:40.909Z,39.30
2022-11-22T21:43:09.747Z,38.22
2022-11-22T21:45:37.274Z,41.80
2022-11-22T21:48:05.015Z,44.80
2022-11-22T21:50:32.515Z,39.53
2022-11-22T21:53:00.034Z,40.03
2022-11-22T21:55:27.494Z,43.60
2022-11-22T21:57:55.003Z,35.35
2022-11-22T22:00:24.050Z,39.60
2022-11-22T22:02:51.601Z,42.55
2022-11-22T22:05:19.486Z,35.92
2022-11-22T22:07:52.432Z,36.13
2022-11-22T22:10:20.598Z,43.55
2022-11-22T22:12:50.952Z,36.47
2022-11-22T22:15:18.555Z,38.20
2022-11-22T22:17:47.493Z,40.40
2022-11-22T22:20:14.984Z,36.28
2022-11-22T22:22:42.505Z,37.33
2022-11-22T22:25:10.159Z,37.33
2022-11-22T22:27:37.619Z,37.83
2022-11-22T22:30:06.219Z,39.33
2022-11-22T22:32:35.414Z,37.83
2022-11-22T22:35:04.277Z,39.10
2022-11-22T22:37:31.770Z,39.08
2022-11-22T22:39:59.213Z,39.22
2022-11-22T22:42:26.728Z,37.72
2022-11-22T22:44:54.249Z,35.78
2022-11-22T22:47:21.724Z,40.53
2022-11-22T22:49:49.257Z,43.97
2022-11-22T22:52:18.122Z,43.85
2022-11-22T22:54:45.640Z,42.25
2022-11-22T22:57:13.144Z,47.25
2022-11-22T22:59:40.663Z,42.30
2022-11-22T23:02:08.103Z,42.40
2022-11-22T23:04:35.604Z,46.47
2022-11-22T23:07:03.195Z,40.38
2022-11-22T23:09:32.418Z,42.95
2022-11-22T23:12:12.006Z,43.65
2022-11-22T23:14:40.100Z,43.10
2022-11-22T23:17:08.130Z,39.30
2022-11-22T23:19:35.641Z,41.78
2022-11-22T23:22:04.392Z,39.50
2022-11-22T23:24:33.822Z,43.15
2022-11-22T23:27:01.411Z,40.30
2022-11-22T23:29:29.159Z,42.28
2022-11-22T23:31:56.817Z,47.25
2022-11-22T23:34:24.302Z,42.83
2022-11-22T23:36:51.818Z,43.70
2022-11-22T23:39:19.321Z,37.35
2022-11-22T23:41:48.120Z,41.83
2022-11-22T23:44:15.542Z,43.05
2022-11-22T23:46:43.049Z,41.28
2022-11-22T23:49:20.406Z,43.03
2022-11-22T23:51:50.208Z,38.58
2022-11-22T23:54:17.936Z,40.45
2022-11-22T23:56:45.409Z,41.15
2022-11-22T23:59:14.314Z,38.55
